Airport ICAO


14:12 UTC

13°C

Scattered clouds


An affordable passengers' Moving Map for your aircraft. Made for the iPad and the iPhone
More information here

EGLL Heathrow


London UNITED KINGDOM   VFR


METAR EGLL 231350Z AUTO 31011KT 280V010 9999 SCT037 13/06 Q1020 NOSIG 0h22min

TAF EGLL 231053Z 2312/2418 33010KT 9999 SCT040 TEMPO 2312/2314 34015G25KT 7000 RA PROB30 2400/2408 7000 3h19min





NOTAMS

OPEN